Time;durP1;ratioP1;P1;durP2;ratioP2;P2;SDS_P1;SDS_P2;PMS_P1;PMS_P2;Temp;Humidity;BMP_temperature;BMP_pressure;BME280_temperature;BME280_humidity;BME280_pressure;Samples;Min_cycle;Max_cycle;Signal;HPM_P1;HPM_P2
2021/05/20 00:01:33;;;;;;;2.27;0.70;;;;;;;11.36;87.47;98341.41;1702968;83;21128;-63
2021/05/20 00:03:59;;;;;;;3.33;1.02;;;;;;;11.31;87.47;98336.62;1654596;86;21085;-63
2021/05/20 00:06:27;;;;;;;1.35;0.70;;;;;;;11.24;87.52;98342.52;1721024;83;21104;-63
2021/05/20 00:08:54;;;;;;;1.87;0.53;;;;;;;11.27;87.45;98343.25;1722412;83;21076;-64
2021/05/20 00:11:20;;;;;;;2.35;0.78;;;;;;;11.28;87.44;98342.70;1719857;83;21041;-63
2021/05/20 00:13:47;;;;;;;2.72;0.88;;;;;;;11.24;87.40;98341.16;1720216;83;21080;-63
2021/05/20 00:16:13;;;;;;;3.87;1.02;;;;;;;11.25;87.32;98341.41;1722350;83;21080;-63
2021/05/20 00:18:40;;;;;;;2.98;0.72;;;;;;;11.22;87.26;98340.67;1720426;83;21100;-63
2021/05/20 00:21:07;;;;;;;1.62;0.80;;;;;;;11.21;87.22;98337.69;1722317;83;21025;-63
2021/05/20 00:23:33;;;;;;;;;;;;;;;11.19;87.25;98340.48;1724932;82;21124;-64
2021/05/20 00:25:59;;;;;;;2.37;0.82;;;;;;;11.18;87.30;98340.23;1722237;83;20171;-64
2021/05/20 00:28:26;;;;;;;1.67;0.80;;;;;;;11.10;87.41;98332.23;1697096;83;21116;-63
2021/05/20 00:30:52;;;;;;;1.50;0.70;;;;;;;11.09;87.28;98338.01;1716894;83;21104;-64
2021/05/20 00:33:18;;;;;;;1.62;0.55;;;;;;;11.13;87.24;98338.97;1722413;82;21096;-63
2021/05/20 00:35:45;;;;;;;;;;;;;;;11.10;87.07;98338.23;1722038;83;21819;-63
2021/05/20 00:38:11;;;;;;;1.57;0.70;;;;;;;11.10;86.97;98342.32;1705107;83;20192;-63
2021/05/20 00:40:38;;;;;;;2.50;0.78;;;;;;;11.08;87.06;98344.55;1699387;83;21016;-63
2021/05/20 00:43:04;;;;;;;2.77;1.02;;;;;;;11.07;87.02;98341.58;1722406;82;21108;-63
2021/05/20 00:45:31;;;;;;;3.72;0.85;;;;;;;11.10;87.01;98340.41;1721726;83;21052;-63
2021/05/20 00:47:57;;;;;;;2.25;0.90;;;;;;;11.14;86.91;98341.95;1720559;83;21072;-62
2021/05/20 00:50:23;;;;;;;3.75;1.00;;;;;;;11.12;86.95;98348.28;1720953;83;21017;-64
2021/05/20 00:52:50;;;;;;;;;;;;;;;11.11;87.07;98343.94;1645780;86;21136;-63
2021/05/20 00:55:19;;;;;;;2.62;0.95;;;;;;;11.14;87.06;98344.67;1645923;87;20150;-64
2021/05/20 00:57:45;;;;;;;1.90;0.90;;;;;;;11.08;87.33;98336.39;1670202;84;21164;-63
2021/05/20 01:00:12;;;;;;;2.55;0.93;;;;;;;11.08;87.41;98337.75;1669490;86;21033;-63
2021/05/20 01:02:40;;;;;;;1.60;0.70;;;;;;;11.07;87.51;98335.58;1668065;86;21651;-63
2021/05/20 01:05:11;;;;;;;3.62;0.98;;;;;;;11.08;87.46;98326.86;1670095;86;21078;-62
2021/05/20 01:07:37;;;;;;;2.15;1.12;;;;;;;11.10;87.41;98332.79;1662856;84;21104;-63
2021/05/20 01:10:06;;;;;;;2.77;0.93;;;;;;;11.12;87.23;98338.20;1669937;86;21560;-63
2021/05/20 01:12:32;;;;;;;2.58;1.05;;;;;;;11.14;87.07;98342.77;1667634;84;21652;-63
2021/05/20 01:14:59;;;;;;;3.50;1.00;;;;;;;11.13;86.95;98337.61;1708775;84;21010;-63
2021/05/20 01:17:26;;;;;;;;;;;;;;;11.13;86.79;98337.06;1711325;84;21048;-63
2021/05/20 01:19:52;;;;;;;5.50;1.12;;;;;;;11.05;86.72;98340.54;1708773;84;20181;-63
2021/05/20 01:22:18;;;;;;;;;;;;;;;11.02;86.79;98337.05;1711069;83;21559;-63
2021/05/20 01:24:45;;;;;;;2.67;1.20;;;;;;;11.02;86.76;98336.27;1709013;84;20168;-63
2021/05/20 01:27:13;;;;;;;3.65;1.00;;;;;;;10.97;86.81;98329.83;1699872;84;21053;-64
2021/05/20 01:29:42;;;;;;;4.37;1.30;;;;;;;10.96;86.75;98334.20;1706760;83;21101;-63
2021/05/20 01:32:09;;;;;;;2.80;1.12;;;;;;;10.97;86.75;98325.74;1708486;84;21064;-63
2021/05/20 01:34:36;;;;;;;2.90;1.10;;;;;;;10.98;86.61;98323.25;1708830;84;21112;-62
2021/05/20 01:37:07;;;;;;;5.00;1.35;;;;;;;10.98;86.53;98328.69;1701153;83;21591;-62
2021/05/20 01:39:33;;;;;;;4.20;1.37;;;;;;;10.96;86.53;98320.59;1670221;84;21651;-64
2021/05/20 01:42:00;;;;;;;2.92;1.40;;;;;;;10.95;86.42;98327.95;1694847;84;21053;-63
2021/05/20 01:44:26;;;;;;;;;;;;;;;10.93;86.41;98323.38;1711548;84;21611;-62
2021/05/20 01:46:54;;;;;;;1.90;1.10;;;;;;;10.93;86.32;98329.38;1709067;84;20200;-62
2021/05/20 01:49:20;;;;;;;1.30;1.00;;;;;;;10.84;86.47;98314.91;1708691;84;21650;-62
2021/05/20 01:51:47;;;;;;;3.27;1.25;;;;;;;10.91;86.49;98323.45;1709686;83;21041;-63
2021/05/20 01:54:13;;;;;;;4.90;1.27;;;;;;;10.94;86.35;98325.55;1719175;83;21104;-63
2021/05/20 01:56:40;;;;;;;4.20;1.30;;;;;;;10.94;86.33;98330.45;1722247;83;21094;-63
2021/05/20 01:59:07;;;;;;;3.52;1.00;;;;;;;10.95;86.30;98328.50;1722186;82;21626;-63
2021/05/20 02:01:34;;;;;;;2.67;1.40;;;;;;;10.94;86.11;98329.08;1722344;83;21033;-63
2021/05/20 02:04:00;;;;;;;;;;;;;;;10.92;86.05;98327.20;1724908;82;21112;-62
2021/05/20 02:06:26;;;;;;;2.22;0.98;;;;;;;10.91;85.97;98329.67;1721435;83;20207;-63
2021/05/20 02:08:54;;;;;;;3.72;1.20;;;;;;;10.85;86.04;98325.47;1718043;82;21096;-63
2021/05/20 02:11:20;;;;;;;4.67;1.22;;;;;;;10.85;85.84;98329.55;1721118;83;21056;-64
2021/05/20 02:13:46;;;;;;;5.03;1.20;;;;;;;10.87;85.84;98325.17;1722331;83;21049;-63
2021/05/20 02:16:14;;;;;;;3.65;1.40;;;;;;;10.85;85.64;98325.47;1710546;83;21045;-63
2021/05/20 02:18:41;;;;;;;2.90;1.00;;;;;;;10.83;85.63;98326.89;1649409;86;21068;-63
2021/05/20 02:21:07;;;;;;;3.98;1.50;;;;;;;10.82;85.65;98333.44;1722357;83;21586;-63
2021/05/20 02:23:34;;;;;;;5.20;1.55;;;;;;;10.79;85.43;98329.98;1722257;83;21073;-63
2021/05/20 02:26:00;;;;;;;2.20;0.88;;;;;;;10.76;85.29;98325.16;1719987;83;21583;-63
2021/05/20 02:28:26;;;;;;;2.85;0.98;;;;;;;10.77;85.40;98328.91;1720376;83;21069;-62
2021/05/20 02:30:53;;;;;;;3.22;1.15;;;;;;;10.81;85.37;98333.19;1693664;85;21641;-63
2021/05/20 02:33:19;;;;;;;;;;;;;;;10.82;85.17;98327.45;1717648;83;21072;-62
2021/05/20 02:35:45;;;;;;;3.42;1.10;;;;;;;10.84;85.20;98332.59;1718945;83;20183;-63
2021/05/20 02:38:12;;;;;;;4.12;1.60;;;;;;;10.81;85.35;98335.91;1717829;82;21674;-62
2021/05/20 02:40:38;;;;;;;2.12;1.02;;;;;;;10.73;85.17;98323.86;1718778;83;21020;-63
2021/05/20 02:43:05;;;;;;;;;;;;;;;10.77;84.96;98324.83;1724668;83;21073;-63
2021/05/20 02:45:31;;;;;;;2.50;0.77;;;;;;;10.78;85.01;98327.80;1715949;83;20168;-64
2021/05/20 02:47:58;;;;;;;2.02;0.85;;;;;;;10.77;84.90;98332.21;1720221;83;21085;-63
2021/05/20 02:50:24;;;;;;;2.87;1.10;;;;;;;10.77;84.93;98338.44;1722192;83;21037;-62
2021/05/20 02:52:51;;;;;;;7.35;1.20;;;;;;;10.80;84.77;98330.23;1720180;81;21111;-62
2021/05/20 02:55:20;;;;;;;2.62;0.93;;;;;;;10.84;84.69;98336.68;1719784;83;20989;-63
2021/05/20 02:57:50;;;;;;;4.70;0.80;;;;;;;10.83;84.44;98331.79;1722127;82;21076;-62
2021/05/20 03:00:21;;;;;;;2.37;1.10;;;;;;;10.87;84.50;98329.26;1722198;83;21056;-63
2021/05/20 03:02:52;;;;;;;3.15;1.02;;;;;;;10.88;84.38;98320.77;1721435;82;21084;-63
2021/05/20 03:07:17;;;;;;;2.77;1.10;;;;;;;10.87;84.15;98324.63;1768252;79;22833;-62
2021/05/20 03:09:44;;;;;;;2.80;0.93;;;;;;;10.82;84.33;98321.19;1704064;83;21068;-64
2021/05/20 03:12:12;;;;;;;3.65;0.85;;;;;;;10.85;84.25;98324.11;1705881;83;21647;-64
2021/05/20 03:14:39;;;;;;;2.72;1.05;;;;;;;10.85;84.01;98327.38;1710682;83;21029;-62
2021/05/20 03:17:11;;;;;;;2.67;0.90;;;;;;;10.82;84.12;98326.08;1719135;83;21117;-63
2021/05/20 03:19:40;;;;;;;4.37;1.10;;;;;;;10.84;84.09;98331.23;1650275;87;21115;-63
2021/05/20 03:22:07;;;;;;;5.17;1.27;;;;;;;10.88;84.14;98321.31;1682112;85;21596;-63
2021/05/20 03:24:35;;;;;;;4.22;1.20;;;;;;;10.90;83.94;98329.45;1650176;87;21103;-64
2021/05/20 03:27:01;;;;;;;2.65;1.10;;;;;;;10.92;83.65;98324.48;1652113;85;21233;-62
2021/05/20 03:29:28;;;;;;;;;;;;;;;10.97;83.67;98329.02;1669830;84;21611;-63
2021/05/20 03:31:55;;;;;;;3.50;0.90;;;;;;;10.99;83.85;98329.50;1659277;85;20300;-63
2021/05/20 03:34:21;;;;;;;3.52;0.90;;;;;;;10.98;84.10;98329.27;1650797;87;21099;-63
2021/05/20 03:36:48;;;;;;;3.08;0.90;;;;;;;11.00;83.80;98320.23;1662583;85;21066;-61
2021/05/20 03:39:14;;;;;;;2.33;0.90;;;;;;;11.06;83.72;98324.98;1682263;85;21089;-61
2021/05/20 03:41:40;;;;;;;;;;;;;;;11.05;83.48;98326.92;1685862;85;21627;-62
2021/05/20 03:44:07;;;;;;;2.15;1.05;;;;;;;11.07;83.52;98326.59;1670461;85;20164;-63
2021/05/20 03:46:35;;;;;;;2.25;0.98;;;;;;;11.06;83.67;98321.70;1679693;85;21141;-62
2021/05/20 03:49:01;;;;;;;1.37;0.78;;;;;;;11.06;83.63;98323.06;1668830;85;21659;-63
2021/05/20 03:51:27;;;;;;;2.98;1.00;;;;;;;11.10;83.31;98324.06;1642425;87;21112;-62
2021/05/20 03:53:53;;;;;;;3.85;1.02;;;;;;;11.09;83.13;98327.89;1670547;85;21162;-63
2021/05/20 03:56:20;;;;;;;;;;;;;;;11.14;83.41;98329.14;1685704;85;21701;-63
2021/05/20 03:58:46;;;;;;;2.22;1.00;;;;;;;11.18;82.83;98322.52;1678172;84;20167;-63
2021/05/20 04:01:13;;;;;;;2.90;0.90;;;;;;;11.19;83.23;98326.87;1677772;85;21083;-61
2021/05/20 04:03:39;;;;;;;1.67;0.70;;;;;;;11.25;83.13;98331.06;1677785;84;21108;-62
2021/05/20 04:06:06;;;;;;;1.90;0.95;;;;;;;11.29;82.36;98338.31;1684486;85;21096;-62
2021/05/20 04:08:35;;;;;;;3.27;1.15;;;;;;;11.33;81.76;98339.86;1675552;85;21100;-63
2021/05/20 04:11:01;;;;;;;2.10;1.17;;;;;;;11.31;81.66;98338.80;1670363;86;21096;-62
2021/05/20 04:13:38;;;;;;;3.50;1.42;;;;;;;11.37;82.01;98336.77;1670902;86;21088;-62
2021/05/20 04:16:06;;;;;;;3.22;1.40;;;;;;;11.41;81.55;98338.54;1670685;86;21084;-63
2021/05/20 04:18:33;;;;;;;4.12;1.60;;;;;;;11.52;81.84;98342.37;1670299;86;22206;-62
2021/05/20 04:21:01;;;;;;;3.15;1.45;;;;;;;11.57;81.41;98344.98;1670204;86;21076;-62
2021/05/20 04:23:28;;;;;;;2.80;1.50;;;;;;;11.69;81.49;98341.91;1663958;85;21057;-63
2021/05/20 04:25:55;;;;;;;3.27;1.20;;;;;;;11.79;80.77;98344.42;1670202;85;21514;-63
2021/05/20 04:28:21;;;;;;;;;;;;;;;11.87;79.61;98354.55;1672739;86;21104;-62
2021/05/20 04:30:47;;;;;;;2.20;1.00;;;;;;;11.98;79.10;98340.09;1696302;84;20148;-63
2021/05/20 04:33:14;;;;;;;;;;;;;;;12.01;78.95;98338.67;1703470;83;21596;-61
2021/05/20 04:35:40;;;;;;;4.28;1.07;;;;;;;12.05;78.69;98332.25;1698563;84;20184;-60
2021/05/20 04:38:07;;;;;;;4.90;1.32;;;;;;;12.05;78.84;98343.16;1708233;82;21077;-61
2021/05/20 04:40:35;;;;;;;2.40;0.62;;;;;;;12.11;77.56;98346.02;1706095;83;21017;-61
2021/05/20 04:43:02;;;;;;;2.05;0.70;;;;;;;12.18;77.95;98346.36;1680947;84;21132;-60
2021/05/20 04:45:28;;;;;;;2.52;0.93;;;;;;;12.30;78.08;98352.01;1698999;84;21517;-61
2021/05/20 04:47:54;;;;;;;;;;;;;;;12.40;77.48;98348.17;1705610;82;21117;-59
2021/05/20 04:50:21;;;;;;;2.90;0.80;;;;;;;12.51;77.23;98356.88;1681258;84;20167;-59
2021/05/20 04:52:47;;;;;;;4.58;0.82;;;;;;;12.47;76.62;98363.52;1636254;87;21107;-62
2021/05/20 04:55:14;;;;;;;;;;;;;;;12.56;76.75;98355.37;1654875;86;21002;-61
2021/05/20 04:57:41;;;;;;;2.40;1.00;;;;;;;12.65;76.27;98356.18;1628066;86;20141;-61
2021/05/20 05:00:11;;;;;;;3.02;0.98;;;;;;;12.67;75.57;98354.77;1708900;84;21561;-63
2021/05/20 05:02:37;;;;;;;2.08;1.07;;;;;;;12.74;76.09;98355.66;1708813;82;21128;-62
2021/05/20 05:05:04;;;;;;;;;;;;;;;12.81;75.46;98362.81;1711522;84;21485;-64
2021/05/20 05:07:31;;;;;;;4.00;1.07;;;;;;;12.81;75.60;98359.52;1698559;82;20204;-62
2021/05/20 05:09:58;;;;;;;4.58;1.10;;;;;;;12.85;76.18;98367.33;1696003;84;21572;-63
2021/05/20 05:12:26;;;;;;;1.52;0.85;;;;;;;12.90;74.94;98372.61;1708244;82;21026;-63
2021/05/20 05:14:52;;;;;;;3.67;1.00;;;;;;;12.99;75.24;98374.00;1708986;84;21035;-62
2021/05/20 05:17:19;;;;;;;3.60;0.93;;;;;;;13.02;75.42;98378.82;1705932;82;21685;-63
2021/05/20 05:19:46;;;;;;;3.47;1.10;;;;;;;13.05;75.29;98371.91;1708930;84;21021;-62
2021/05/20 05:22:12;;;;;;;;;;;;;;;13.07;75.54;98380.59;1711431;84;21683;-63
2021/05/20 05:24:40;;;;;;;2.85;1.10;;;;;;;13.13;75.87;98384.25;1708846;84;20164;-61
2021/05/20 05:27:06;;;;;;;3.52;0.90;;;;;;;13.11;74.91;98376.91;1708994;84;21113;-60
2021/05/20 05:29:33;;;;;;;;;;;;;;;13.16;75.47;98385.52;1691339;84;21098;-60
2021/05/20 05:32:01;;;;;;;2.35;1.00;;;;;;;13.19;74.99;98393.88;1708888;84;20180;-60
2021/05/20 05:34:27;;;;;;;2.65;1.02;;;;;;;13.22;74.92;98389.14;1708915;82;21081;-63
2021/05/20 05:36:54;;;;;;;1.85;0.90;;;;;;;13.34;74.97;98398.06;1708979;84;21100;-61
2021/05/20 05:39:20;;;;;;;1.52;1.00;;;;;;;13.48;73.81;98391.88;1708980;82;21073;-62
2021/05/20 05:41:47;;;;;;;3.42;1.10;;;;;;;13.59;73.31;98393.16;1709016;84;21595;-61
2021/05/20 05:44:13;;;;;;;1.75;1.20;;;;;;;13.67;73.38;98391.53;1709125;82;21093;-61
2021/05/20 05:46:43;;;;;;;2.55;1.30;;;;;;;13.75;73.34;98405.73;1708732;84;21057;-61
2021/05/20 05:49:29;;;;;;;4.87;1.17;;;;;;;13.82;72.41;98385.53;1708879;82;21101;-61
2021/05/20 05:51:42;;;;;;;2.52;0.85;;;;;;;13.94;72.28;98397.43;1707291;84;21564;-60
2021/05/20 05:54:08;;;;;;;3.50;1.22;;;;;;;14.14;71.50;98402.75;1708934;82;21116;-61
2021/05/20 05:56:35;;;;;;;;;;;;;;;14.25;70.98;98411.41;1711332;83;21029;-60
2021/05/20 05:59:02;;;;;;;2.47;0.98;;;;;;;14.32;71.61;98403.48;1709036;82;20486;-60
2021/05/20 06:01:29;;;;;;;1.55;0.88;;;;;;;14.38;71.18;98406.34;1708191;84;21580;-61
2021/05/20 06:03:57;;;;;;;2.17;1.10;;;;;;;14.50;70.06;98399.58;1600775;88;21057;-59
2021/05/20 06:06:24;;;;;;;3.98;1.10;;;;;;;14.52;70.21;98400.64;1706724;83;21080;-58
2021/05/20 06:08:50;;;;;;;4.10;1.20;;;;;;;14.47;70.24;98409.83;1714663;83;21096;-59
2021/05/20 06:11:17;;;;;;;4.72;1.17;;;;;;;14.45;69.57;98406.04;1693300;85;21540;-61
2021/05/20 06:13:43;;;;;;;;;;;;;;;14.41;69.10;98412.52;1695658;85;21124;-60
2021/05/20 06:16:10;;;;;;;2.12;1.10;;;;;;;14.38;69.13;98419.44;1703884;83;20154;-60
2021/05/20 06:18:36;;;;;;;;;;;;;;;14.39;69.75;98433.37;1724497;83;21598;-59
2021/05/20 06:21:03;;;;;;;2.55;1.00;;;;;;;14.47;69.96;98429.55;1722569;83;20160;-58
2021/05/20 06:23:29;;;;;;;2.40;1.10;;;;;;;14.50;68.69;98433.00;1712563;82;21670;-61
2021/05/20 06:25:56;;;;;;;2.95;1.20;;;;;;;14.66;69.30;98425.86;1653836;85;21028;-58
2021/05/20 06:28:23;;;;;;;3.22;1.10;;;;;;;14.81;68.45;98406.09;1722501;82;21678;-59
2021/05/20 06:30:49;;;;;;;3.17;1.10;;;;;;;14.89;66.35;98422.50;1721852;83;21013;-60
2021/05/20 06:33:17;;;;;;;;;;;;;;;14.95;66.60;98420.36;1724874;83;21084;-58
2021/05/20 06:35:43;;;;;;;4.53;1.20;;;;;;;14.89;66.79;98428.54;1722403;83;20180;-61
2021/05/20 06:38:10;;;;;;;4.08;1.10;;;;;;;14.78;66.54;98417.72;1716271;82;21080;-60
2021/05/20 06:40:36;;;;;;;4.58;1.45;;;;;;;14.77;67.21;98421.62;1703654;83;21072;-59
2021/05/20 06:43:03;;;;;;;3.85;1.20;;;;;;;14.82;67.37;98420.84;1652347;86;21120;-61
2021/05/20 06:45:29;;;;;;;;;;;;;;;14.91;66.98;98420.81;1723944;83;21033;-62
2021/05/20 06:47:55;;;;;;;5.37;1.25;;;;;;;15.10;65.58;98419.78;1713784;83;20213;-61
2021/05/20 06:50:22;;;;;;;3.17;1.10;;;;;;;15.10;65.79;98428.00;1693614;85;21060;-60
2021/05/20 06:52:50;;;;;;;5.17;1.20;;;;;;;15.21;66.00;98439.37;1693679;84;21061;-60
2021/05/20 06:55:16;;;;;;;2.25;0.90;;;;;;;15.18;63.98;98446.91;1693657;85;21044;-60
2021/05/20 07:00:28;;;;;;;5.12;1.10;;;;;;;15.27;64.83;98448.44;1698659;83;20973;-60
2021/05/20 07:02:54;;;;;;;;;;;;;;;15.37;62.96;98452.16;1706503;83;21635;-60
2021/05/20 07:05:21;;;;;;;2.62;0.93;;;;;;;15.28;61.90;98458.84;1708419;83;20177;-62
2021/05/20 07:07:47;;;;;;;3.33;1.10;;;;;;;15.18;62.39;98464.16;1698526;83;21067;-60
2021/05/20 07:10:14;;;;;;;4.47;1.32;;;;;;;15.17;63.10;98467.22;1701511;83;21614;-61
2021/05/20 07:12:42;;;;;;;4.08;1.40;;;;;;;15.15;63.27;98463.45;1664864;86;21064;-61
2021/05/20 07:15:10;;;;;;;3.08;1.20;;;;;;;15.10;62.85;98465.56;1685994;84;21046;-62
2021/05/20 07:17:36;;;;;;;4.53;1.12;;;;;;;15.14;63.92;98467.88;1683542;85;21104;-61
2021/05/20 07:20:05;;;;;;;3.55;1.30;;;;;;;15.09;63.35;98470.83;1683655;85;21041;-62
2021/05/20 07:22:32;;;;;;;2.67;1.35;;;;;;;15.00;63.30;98472.24;1683574;85;21092;-61
2021/05/20 07:25:05;;;;;;;3.75;1.20;;;;;;;14.89;62.86;98470.45;1667294;86;21412;-62
2021/05/20 07:27:32;;;;;;;5.22;0.98;;;;;;;14.79;62.64;98476.86;1634903;88;21092;-62
2021/05/20 07:30:00;;;;;;;3.45;0.90;;;;;;;14.73;63.31;98476.26;1667148;86;21662;-63
2021/05/20 07:32:27;;;;;;;4.42;1.10;;;;;;;14.76;62.58;98474.22;1634806;88;21097;-62
2021/05/20 07:34:54;;;;;;;3.70;1.00;;;;;;;14.86;63.33;98486.73;1649987;87;21567;-62
2021/05/20 07:37:20;;;;;;;4.62;1.10;;;;;;;14.80;62.57;98486.70;1667043;86;21089;-60
2021/05/20 07:39:47;;;;;;;2.72;1.40;;;;;;;14.70;63.07;98491.95;1634942;88;21089;-63
2021/05/20 07:42:13;;;;;;;3.40;1.17;;;;;;;14.60;63.55;98489.58;1649821;87;21067;-61
2021/05/20 07:44:41;;;;;;;3.20;0.90;;;;;;;14.51;63.67;98498.41;1666886;86;21601;-63
2021/05/20 07:47:07;;;;;;;4.92;1.00;;;;;;;14.49;64.54;98493.80;1634938;88;21420;-61
2021/05/20 07:49:37;;;;;;;5.10;1.90;;;;;;;14.63;64.80;98488.92;1666827;86;21125;-62
2021/05/20 07:52:06;;;;;;;5.42;1.32;;;;;;;14.77;64.04;98503.80;1634820;88;21607;-62
2021/05/20 07:54:33;;;;;;;1.72;0.98;;;;;;;14.90;63.95;98506.87;1649975;87;21120;-63
2021/05/20 07:57:00;;;;;;;5.97;1.12;;;;;;;15.00;63.87;98505.13;1667197;86;21662;-61
2021/05/20 07:59:26;;;;;;;5.55;1.50;;;;;;;15.02;63.72;98500.70;1635082;87;21108;-63
2021/05/20 08:02:10;;;;;;;2.30;1.27;;;;;;;15.01;64.59;98510.05;1638891;87;21110;-62
2021/05/20 08:04:25;;;;;;;3.12;1.10;;;;;;;14.98;64.11;98510.70;1641777;86;21104;-62
2021/05/20 08:07:02;;;;;;;5.08;1.30;;;;;;;14.85;64.61;98519.38;1632867;88;21089;-62
2021/05/20 08:09:27;;;;;;;3.00;1.32;;;;;;;14.66;65.18;98511.57;1692324;85;21140;-61
2021/05/20 08:11:53;;;;;;;4.17;1.05;;;;;;;14.55;64.91;98521.27;1657663;86;21100;-62
2021/05/20 08:14:19;;;;;;;;;;;;;;;14.56;65.03;98533.03;1696321;84;21627;-62
2021/05/20 08:16:47;;;;;;;;;;;;;;;14.64;63.01;98509.70;1696084;85;20515;-62
2021/05/20 08:19:13;;;;;;;1.85;0.95;;;;;;;14.67;63.08;98517.27;1693703;85;20150;-62
2021/05/20 08:21:41;;;;;;;3.67;1.05;;;;;;;14.66;63.75;98532.11;1693530;85;21874;-62
2021/05/20 08:24:08;;;;;;;4.95;1.35;;;;;;;14.72;63.51;98536.27;1657881;86;21117;-61
2021/05/20 08:26:34;;;;;;;4.25;1.22;;;;;;;14.77;62.13;98538.04;1667746;85;21028;-63
2021/05/20 08:29:00;;;;;;;;;;;;;;;14.86;62.20;98540.98;1696140;85;21089;-61
2021/05/20 08:31:29;;;;;;;2.67;1.25;;;;;;;15.03;62.80;98551.05;1693574;85;20161;-61
2021/05/20 08:33:56;;;;;;;2.42;0.98;;;;;;;15.25;60.95;98545.87;1693533;85;21132;-61
2021/05/20 08:36:23;;;;;;;2.22;1.07;;;;;;;15.44;59.18;98542.14;1693632;84;21024;-61
2021/05/20 08:38:49;;;;;;;3.10;1.20;;;;;;;15.57;59.04;98537.00;1693505;85;21607;-62
2021/05/20 08:41:19;;;;;;;4.55;0.95;;;;;;;15.76;59.81;98553.01;1693597;85;21040;-62
2021/05/20 08:43:47;;;;;;;4.35;1.37;;;;;;;15.82;59.90;98556.59;1693536;84;21681;-61
2021/05/20 08:46:15;;;;;;;5.40;1.60;;;;;;;15.84;61.44;98548.00;1657858;86;21052;-62
2021/05/20 08:48:43;;;;;;;4.67;1.12;;;;;;;15.77;61.60;98572.42;1668579;85;21578;-62
2021/05/20 08:51:10;;;;;;;2.52;0.98;;;;;;;15.66;61.43;98544.58;1693768;85;21056;-62
2021/05/20 08:53:38;;;;;;;3.40;1.10;;;;;;;15.54;57.25;98555.49;1657675;86;21725;-62
2021/05/20 08:56:05;;;;;;;3.15;1.10;;;;;;;15.41;58.74;98557.86;1693686;85;21572;-63
2021/05/20 08:58:31;;;;;;;7.80;1.00;;;;;;;15.32;59.83;98564.78;1693698;85;21084;-62
2021/05/20 09:00:59;;;;;;;2.52;1.20;;;;;;;15.26;58.82;98572.97;1657637;86;21591;-63
2021/05/20 09:03:26;;;;;;;3.40;1.10;;;;;;;15.33;58.34;98565.03;1693476;84;21647;-62
2021/05/20 09:05:52;;;;;;;;;;;;;;;15.57;59.35;98552.08;1696025;84;21072;-62
2021/05/20 09:08:28;;;;;;;6.42;1.30;;;;;;;15.98;58.65;98555.99;1695627;84;20186;-63
2021/05/20 09:10:48;;;;;;;3.00;1.20;;;;;;;16.24;56.43;98552.44;1666949;86;21030;-62
2021/05/20 09:13:16;;;;;;;4.65;1.60;;;;;;;16.33;57.10;98554.55;1634918;88;21948;-63
2021/05/20 09:15:50;;;;;;;6.25;1.92;;;;;;;16.33;56.54;98563.56;1638772;87;21609;-63
2021/05/20 09:18:24;;;;;;;3.87;1.42;;;;;;;16.33;56.96;98561.41;1667044;86;21104;-63
2021/05/20 09:20:58;;;;;;;3.62;1.20;;;;;;;16.49;58.23;98568.43;1635011;88;21571;-62
2021/05/20 09:23:29;;;;;;;3.65;1.20;;;;;;;16.74;57.87;98569.57;1638558;87;21110;-62
2021/05/20 09:26:08;;;;;;;1.30;0.70;;;;;;;17.16;58.89;98566.08;1667176;86;21674;-64
2021/05/20 09:28:39;;;;;;;3.72;0.72;;;;;;;17.63;54.02;98568.39;1634792;87;21151;-63
2021/05/20 09:31:07;;;;;;;3.47;0.62;;;;;;;17.76;48.55;98560.33;1667044;86;21885;-62
2021/05/20 09:33:34;;;;;;;1.37;0.60;;;;;;;17.55;48.00;98552.77;1634941;88;21140;-62
2021/05/20 09:36:01;;;;;;;3.70;0.70;;;;;;;17.27;49.32;98569.17;1649832;87;21060;-63
2021/05/20 09:38:27;;;;;;;;;;;;;;;17.08;50.75;98580.72;1644589;86;21158;-63
2021/05/20 09:41:00;;;;;;;2.27;1.25;;;;;;;16.82;53.25;98567.87;1656127;86;20185;-63
2021/05/20 09:43:35;;;;;;;4.35;1.25;;;;;;;16.59;54.87;98581.20;1645379;87;21104;-63
2021/05/20 09:46:16;;;;;;;3.15;1.07;;;;;;;16.43;55.91;98584.33;1645350;87;21044;-62
2021/05/20 09:48:45;;;;;;;2.33;0.85;;;;;;;16.28;56.06;98578.08;1645185;87;21157;-63
2021/05/20 09:51:27;;;;;;;2.92;1.02;;;;;;;16.17;55.69;98577.69;1645482;87;21077;-63
2021/05/20 09:53:54;;;;;;;3.00;0.90;;;;;;;16.14;55.61;98583.05;1645201;87;21132;-64
2021/05/20 09:56:40;;;;;;;2.85;0.95;;;;;;;16.10;55.31;98583.48;1645362;87;21050;-62
2021/05/20 09:59:15;;;;;;;2.95;1.00;;;;;;;16.10;54.28;98596.64;1645387;87;21113;-62
2021/05/20 10:01:42;;;;;;;2.35;0.85;;;;;;;16.07;55.03;98578.67;1645350;87;21428;-62
2021/05/20 10:04:12;;;;;;;1.47;0.70;;;;;;;16.00;53.73;98590.75;1645436;87;21104;-62
2021/05/20 10:06:43;;;;;;;3.22;0.95;;;;;;;15.94;53.94;98595.06;1598933;87;21105;-62
2021/05/20 10:09:11;;;;;;;3.98;0.82;;;;;;;15.90;53.73;98590.59;1645339;86;21101;-62
2021/05/20 10:11:38;;;;;;;2.20;0.90;;;;;;;15.95;54.67;98590.37;1645338;87;21516;-62
2021/05/20 10:14:05;;;;;;;2.95;0.90;;;;;;;16.15;55.02;98585.48;1645293;87;21157;-62
2021/05/20 10:16:34;;;;;;;5.70;1.10;;;;;;;16.58;56.26;98594.70;1645302;87;21069;-62
2021/05/20 10:19:02;;;;;;;5.05;0.80;;;;;;;16.98;52.41;98587.23;1645333;87;21149;-61
2021/05/20 10:21:30;;;;;;;2.42;0.70;;;;;;;17.24;51.00;98591.87;1619428;87;21056;-61
2021/05/20 10:23:57;;;;;;;2.10;0.70;;;;;;;17.43;52.12;98595.44;1645525;87;21140;-62
2021/05/20 10:26:23;;;;;;;2.60;0.90;;;;;;;17.50;51.04;98604.69;1645499;87;21654;-63
2021/05/20 10:28:50;;;;;;;2.12;0.68;;;;;;;17.45;51.02;98591.18;1645244;87;21109;-63
2021/05/20 10:31:17;;;;;;;4.20;0.68;;;;;;;17.40;51.16;98597.70;1645380;87;21036;-63
2021/05/20 10:33:44;;;;;;;1.85;0.70;;;;;;;17.36;51.95;98600.91;1645238;87;21143;-63
2021/05/20 10:36:24;;;;;;;2.17;0.72;;;;;;;17.33;51.68;98595.30;1645519;87;21033;-62
2021/05/20 10:38:51;;;;;;;2.87;0.85;;;;;;;17.32;53.09;98599.98;1645312;87;21152;-62
2021/05/20 10:41:26;;;;;;;;;;;;;;;17.38;52.09;98602.77;1647873;87;21081;-62
2021/05/20 10:44:08;;;;;;;6.45;0.95;;;;;;;17.51;52.76;98602.17;1645383;87;20194;-62
2021/05/20 10:47:02;;;;;;;3.20;0.80;;;;;;;17.76;51.58;98598.86;1645319;87;21096;-63
2021/05/20 10:49:53;;;;;;;4.05;0.82;;;;;;;18.09;52.59;98599.50;1645446;87;21109;-62
2021/05/20 10:52:40;;;;;;;4.60;0.90;;;;;;;18.55;52.60;98604.19;1645264;87;21101;-63
2021/05/20 10:55:09;;;;;;;3.17;0.82;;;;;;;18.85;52.04;98599.31;1645582;87;21033;-62
2021/05/20 10:57:58;;;;;;;1.98;0.80;;;;;;;18.83;49.70;98607.14;1645043;87;21701;-64
2021/05/20 11:00:39;;;;;;;1.92;0.70;;;;;;;18.96;51.51;98598.78;1616370;89;21021;-63
2021/05/20 11:03:06;;;;;;;4.15;0.68;;;;;;;19.13;48.01;98597.09;1657318;86;21159;-63
2021/05/20 11:05:48;;;;;;;4.08;0.82;;;;;;;19.13;47.75;98602.00;1648237;87;21114;-62
2021/05/20 11:08:38;;;;;;;2.30;0.70;;;;;;;19.20;47.20;98593.91;1641965;86;21144;-62
2021/05/20 11:11:09;;;;;;;3.37;0.60;;;;;;;19.23;46.27;98605.64;1643230;86;21060;-63
2021/05/20 11:13:40;;;;;;;5.62;0.95;;;;;;;19.30;49.12;98598.11;1643274;87;21140;-63
2021/05/20 11:16:30;;;;;;;6.20;1.00;;;;;;;19.29;46.04;98602.83;1643259;87;21052;-62
2021/05/20 11:19:24;;;;;;;6.70;0.90;;;;;;;19.13;47.11;98606.14;1559392;92;21144;-63
2021/05/20 11:22:06;;;;;;;2.37;0.60;;;;;;;18.94;49.32;98610.19;1635681;87;21060;-62
2021/05/20 11:24:34;;;;;;;1.87;0.95;;;;;;;18.85;45.63;98595.75;1642746;87;21148;-62
2021/05/20 11:27:09;;;;;;;1.05;0.65;;;;;;;18.78;49.38;98598.31;1606456;89;21041;-63
2021/05/20 11:29:37;;;;;;;2.22;0.60;;;;;;;18.91;48.50;98612.28;1680466;85;21085;-63
2021/05/20 11:32:24;;;;;;;2.80;0.72;;;;;;;19.01;46.90;98605.44;1680605;85;21029;-62
2021/05/20 11:37:38;;;;;;;4.25;1.35;;;;;;;19.01;48.22;98617.27;1643487;87;21073;-62
2021/05/20 11:40:08;;;;;;;3.10;1.20;;;;;;;18.93;47.32;98622.36;1606994;89;21085;-63
2021/05/20 11:42:34;;;;;;;3.47;0.90;;;;;;;18.91;47.55;98620.55;1657853;85;21093;-63
2021/05/20 11:45:02;;;;;;;4.62;0.90;;;;;;;18.93;50.93;98620.18;1636256;87;21101;-63
2021/05/20 11:47:29;;;;;;;2.00;0.78;;;;;;;18.98;48.56;98620.73;1643277;87;21599;-63
2021/05/20 11:49:55;;;;;;;5.87;1.02;;;;;;;19.12;47.84;98627.20;1606845;89;21449;-62
2021/05/20 11:52:23;;;;;;;4.17;1.20;;;;;;;19.16;47.52;98623.39;1680656;85;21520;-63
2021/05/20 11:54:51;;;;;;;4.70;1.30;;;;;;;19.17;48.02;98624.97;1661482;85;21061;-63